Tampico, Illinois
Current Conditions -  °F | °C
As of 2:35 AM on Monday 24 Nov 2014 (Local Time) from KSQI Reporting Station
Overcast Overcast  
Wind Chill: 39°   Ceiling: 200
Heat Index: 46°   Visibility: 2.5mi
Dew Point: 45°   Wind: 17mph
Humidity: 93%   Direction: 280°W
Pressure: 29.12"   Gusts: NA
Location:  41.63°N, 89.79°W
Report Text: KSQI 240835Z 28015KT 2 1/2SM OVC002 08/07 A2912 RMK AO1
Loading
Personal Weather Stations






























Interactive Weather Map New forecast layout! Learn more

10-Day Weather Forecast

Advertisements
Track Severe Weather on mobile